Aviation Digital Data Service (ADDS)

Output produced by METARs form (2320 UTC 20 January 2019)
found at http://www.aviationweather.gov/metar/data/
 
Forecast for: UTSK (KARSHI KHANABAD , UZ)
Text: TAF UTSK 201157Z 2013/2022 22010G20KT 5000 BR BKN008 BKN040CB
Forecast period: 1300 to 2200 UTC 20 January 2019
Forecast type: FROM: standard forecast or significant change
Winds: from the SW (220 degrees) at 12 MPH (10 knots; 5.1 m/s)
gusting to 23 MPH (20 knots; 10.3 m/s)
Visibility: 3 miles (5 km)
Ceiling: 800 feet AGL
Clouds: broken clouds at 800 feet AGL
broken clouds at 4000 feet AGL
Weather: BR  (mist)
Text: TEMPO 2013/2022 28010KT 0500 FZFG VV002
Forecast period: 1300 to 2200 UTC 20 January 2019
Forecast type: TEMPORARY: The following changes expected for less than half the time period
Winds: from the W (280 degrees) at 12 MPH (10 knots; 5.1 m/s)
Visibility: 0.31 miles (0.50 km)
Ceiling: indefinite ceiling with vertical visibility of 200 feet AGL
Clouds: obscured sky
Weather: FZFG  (freezing fog)